sensor_id;sensor_type;location;lat;lon;timestamp;temperature;humidity
16879;DHT22;8556;52.218;9.884;2023-10-19T00:01:57;7.60;99.90
16879;DHT22;8556;52.218;9.884;2023-10-19T00:04:25;7.60;99.90
16879;DHT22;8556;52.218;9.884;2023-10-19T00:06:51;7.60;99.90
16879;DHT22;8556;52.218;9.884;2023-10-19T00:09:18;7.60;99.90
16879;DHT22;8556;52.218;9.884;2023-10-19T00:11:45;7.60;99.90
16879;DHT22;8556;52.218;9.884;2023-10-19T00:14:13;7.50;99.90
16879;DHT22;8556;52.218;9.884;2023-10-19T00:16:42;7.50;99.90
16879;DHT22;8556;52.218;9.884;2023-10-19T00:19:17;7.50;99.90
16879;DHT22;8556;52.218;9.884;2023-10-19T00:21:45;7.50;99.90
16879;DHT22;8556;52.218;9.884;2023-10-19T00:24:21;7.50;99.90
16879;DHT22;8556;52.218;9.884;2023-10-19T00:26:49;7.50;99.90
16879;DHT22;8556;52.218;9.884;2023-10-19T00:29:19;7.50;99.90
16879;DHT22;8556;52.218;9.884;2023-10-19T00:31:56;7.50;99.90
16879;DHT22;8556;52.218;9.884;2023-10-19T00:34:25;7.40;99.90
16879;DHT22;8556;52.218;9.884;2023-10-19T00:36:54;7.40;99.90
16879;DHT22;8556;52.218;9.884;2023-10-19T00:39:21;7.40;99.90
16879;DHT22;8556;52.218;9.884;2023-10-19T00:41:49;7.50;99.90
16879;DHT22;8556;52.218;9.884;2023-10-19T00:44:17;7.40;99.90
16879;DHT22;8556;52.218;9.884;2023-10-19T00:46:48;7.40;99.90
16879;DHT22;8556;52.218;9.884;2023-10-19T00:49:27;7.50;99.90
16879;DHT22;8556;52.218;9.884;2023-10-19T00:51:56;7.40;99.90
16879;DHT22;8556;52.218;9.884;2023-10-19T00:54:31;7.40;99.90
16879;DHT22;8556;52.218;9.884;2023-10-19T00:57:06;7.40;99.90
16879;DHT22;8556;52.218;9.884;2023-10-19T00:59:34;7.50;99.90
16879;DHT22;8556;52.218;9.884;2023-10-19T01:02:04;7.40;99.90
16879;DHT22;8556;52.218;9.884;2023-10-19T01:04:45;7.40;99.90
16879;DHT22;8556;52.218;9.884;2023-10-19T01:07:16;7.40;99.90
16879;DHT22;8556;52.218;9.884;2023-10-19T01:09:48;7.40;99.90
16879;DHT22;8556;52.218;9.884;2023-10-19T01:12:19;7.40;99.90
16879;DHT22;8556;52.218;9.884;2023-10-19T01:15:05;7.30;99.90
16879;DHT22;8556;52.218;9.884;2023-10-19T01:17:44;7.40;99.90
16879;DHT22;8556;52.218;9.884;2023-10-19T01:20:13;7.30;99.90
16879;DHT22;8556;52.218;9.884;2023-10-19T01:22:50;7.30;99.90
16879;DHT22;8556;52.218;9.884;2023-10-19T01:25:19;7.30;99.90
16879;DHT22;8556;52.218;9.884;2023-10-19T01:27:50;7.30;99.90
16879;DHT22;8556;52.218;9.884;2023-10-19T01:30:23;7.20;99.90
16879;DHT22;8556;52.218;9.884;2023-10-19T01:32:49;7.20;99.90
16879;DHT22;8556;52.218;9.884;2023-10-19T01:35:17;7.20;99.90
16879;DHT22;8556;52.218;9.884;2023-10-19T01:37:44;7.20;99.90
16879;DHT22;8556;52.218;9.884;2023-10-19T01:40:12;7.20;99.90
16879;DHT22;8556;52.218;9.884;2023-10-19T01:42:45;7.20;99.90
16879;DHT22;8556;52.218;9.884;2023-10-19T01:45:11;7.10;99.90
16879;DHT22;8556;52.218;9.884;2023-10-19T01:47:39;7.20;99.90
16879;DHT22;8556;52.218;9.884;2023-10-19T01:50:07;7.10;99.90
16879;DHT22;8556;52.218;9.884;2023-10-19T01:52:45;7.00;99.90
16879;DHT22;8556;52.218;9.884;2023-10-19T01:55:14;7.00;99.90
16879;DHT22;8556;52.218;9.884;2023-10-19T01:57:46;7.00;99.90
16879;DHT22;8556;52.218;9.884;2023-10-19T02:00:13;6.90;99.90
16879;DHT22;8556;52.218;9.884;2023-10-19T02:02:48;6.90;99.90
16879;DHT22;8556;52.218;9.884;2023-10-19T02:05:16;7.10;99.90
16879;DHT22;8556;52.218;9.884;2023-10-19T02:07:43;6.90;99.90
16879;DHT22;8556;52.218;9.884;2023-10-19T02:10:10;6.90;99.90
16879;DHT22;8556;52.218;9.884;2023-10-19T02:12:37;7.00;99.90
16879;DHT22;8556;52.218;9.884;2023-10-19T02:15:08;6.90;99.90
16879;DHT22;8556;52.218;9.884;2023-10-19T02:17:33;6.80;99.90
16879;DHT22;8556;52.218;9.884;2023-10-19T02:20:00;6.90;99.90
16879;DHT22;8556;52.218;9.884;2023-10-19T02:22:26;6.80;99.90
16879;DHT22;8556;52.218;9.884;2023-10-19T02:24:54;6.90;99.90
16879;DHT22;8556;52.218;9.884;2023-10-19T02:27:20;6.90;99.90
16879;DHT22;8556;52.218;9.884;2023-10-19T02:29:49;6.90;99.90
16879;DHT22;8556;52.218;9.884;2023-10-19T02:32:16;6.90;99.90
16879;DHT22;8556;52.218;9.884;2023-10-19T02:34:44;6.90;99.90
16879;DHT22;8556;52.218;9.884;2023-10-19T02:37:12;6.90;99.90
16879;DHT22;8556;52.218;9.884;2023-10-19T02:39:37;6.90;99.90
16879;DHT22;8556;52.218;9.884;2023-10-19T02:42:05;6.90;99.90
16879;DHT22;8556;52.218;9.884;2023-10-19T02:44:33;7.00;99.90
16879;DHT22;8556;52.218;9.884;2023-10-19T02:47:01;7.00;99.90
16879;DHT22;8556;52.218;9.884;2023-10-19T02:49:34;7.00;99.90
16879;DHT22;8556;52.218;9.884;2023-10-19T02:52:04;6.90;99.90
16879;DHT22;8556;52.218;9.884;2023-10-19T02:54:31;7.00;99.90
16879;DHT22;8556;52.218;9.884;2023-10-19T02:56:58;7.00;99.90
16879;DHT22;8556;52.218;9.884;2023-10-19T02:59:27;7.00;99.90
16879;DHT22;8556;52.218;9.884;2023-10-19T03:01:55;7.00;99.90
16879;DHT22;8556;52.218;9.884;2023-10-19T03:04:28;7.00;99.90
16879;DHT22;8556;52.218;9.884;2023-10-19T03:06:54;7.00;99.90
16879;DHT22;8556;52.218;9.884;2023-10-19T03:09:21;7.00;99.90
16879;DHT22;8556;52.218;9.884;2023-10-19T03:11:50;7.10;99.90
16879;DHT22;8556;52.218;9.884;2023-10-19T03:14:19;7.10;99.90
16879;DHT22;8556;52.218;9.884;2023-10-19T03:16:45;7.10;99.90
16879;DHT22;8556;52.218;9.884;2023-10-19T03:19:12;7.00;99.90
16879;DHT22;8556;52.218;9.884;2023-10-19T03:21:40;7.00;99.90
16879;DHT22;8556;52.218;9.884;2023-10-19T03:24:09;7.00;99.90
16879;DHT22;8556;52.218;9.884;2023-10-19T03:26:38;7.00;99.90
16879;DHT22;8556;52.218;9.884;2023-10-19T03:29:09;7.00;99.90
16879;DHT22;8556;52.218;9.884;2023-10-19T03:31:39;7.00;99.90
16879;DHT22;8556;52.218;9.884;2023-10-19T03:34:08;7.10;99.90
16879;DHT22;8556;52.218;9.884;2023-10-19T03:36:39;7.10;99.90
16879;DHT22;8556;52.218;9.884;2023-10-19T03:39:07;7.10;99.90
16879;DHT22;8556;52.218;9.884;2023-10-19T03:41:39;7.00;99.90
16879;DHT22;8556;52.218;9.884;2023-10-19T03:44:10;7.00;99.90
16879;DHT22;8556;52.218;9.884;2023-10-19T03:46:44;7.10;99.90
16879;DHT22;8556;52.218;9.884;2023-10-19T03:49:21;7.00;99.90
16879;DHT22;8556;52.218;9.884;2023-10-19T03:51:50;7.10;99.90
16879;DHT22;8556;52.218;9.884;2023-10-19T03:54:26;7.00;99.90
16879;DHT22;8556;52.218;9.884;2023-10-19T03:56:53;7.10;99.90
16879;DHT22;8556;52.218;9.884;2023-10-19T03:59:21;7.10;99.90
16879;DHT22;8556;52.218;9.884;2023-10-19T04:01:48;7.00;99.90
16879;DHT22;8556;52.218;9.884;2023-10-19T04:04:15;7.00;99.90
16879;DHT22;8556;52.218;9.884;2023-10-19T04:06:42;7.10;99.90
16879;DHT22;8556;52.218;9.884;2023-10-19T04:09:14;7.10;99.90
16879;DHT22;8556;52.218;9.884;2023-10-19T04:11:44;7.10;99.90
16879;DHT22;8556;52.218;9.884;2023-10-19T04:14:18;7.10;99.90
16879;DHT22;8556;52.218;9.884;2023-10-19T04:16:46;7.00;99.90
16879;DHT22;8556;52.218;9.884;2023-10-19T04:19:14;7.10;99.90
16879;DHT22;8556;52.218;9.884;2023-10-19T04:21:42;7.10;99.90
16879;DHT22;8556;52.218;9.884;2023-10-19T04:24:13;7.10;99.90
16879;DHT22;8556;52.218;9.884;2023-10-19T04:26:40;7.00;99.90
16879;DHT22;8556;52.218;9.884;2023-10-19T04:29:08;7.00;99.90
16879;DHT22;8556;52.218;9.884;2023-10-19T04:31:37;7.00;99.90
16879;DHT22;8556;52.218;9.884;2023-10-19T04:34:08;7.00;99.90
16879;DHT22;8556;52.218;9.884;2023-10-19T04:36:35;7.00;99.90
16879;DHT22;8556;52.218;9.884;2023-10-19T04:39:02;7.00;99.90
16879;DHT22;8556;52.218;9.884;2023-10-19T04:41:31;7.00;99.90
16879;DHT22;8556;52.218;9.884;2023-10-19T04:43:58;7.00;99.90
16879;DHT22;8556;52.218;9.884;2023-10-19T04:46:26;7.00;99.90
16879;DHT22;8556;52.218;9.884;2023-10-19T04:48:54;7.00;99.90
16879;DHT22;8556;52.218;9.884;2023-10-19T04:51:21;7.00;99.90
16879;DHT22;8556;52.218;9.884;2023-10-19T04:53:48;7.00;99.90
16879;DHT22;8556;52.218;9.884;2023-10-19T04:56:15;7.00;99.90
16879;DHT22;8556;52.218;9.884;2023-10-19T04:58:43;7.00;99.90
16879;DHT22;8556;52.218;9.884;2023-10-19T05:01:10;7.00;99.90
16879;DHT22;8556;52.218;9.884;2023-10-19T05:03:38;7.00;99.90
16879;DHT22;8556;52.218;9.884;2023-10-19T05:06:05;7.00;99.90
16879;DHT22;8556;52.218;9.884;2023-10-19T05:08:32;7.00;99.90
16879;DHT22;8556;52.218;9.884;2023-10-19T05:10:59;7.00;99.90
16879;DHT22;8556;52.218;9.884;2023-10-19T05:13:26;7.00;99.90
16879;DHT22;8556;52.218;9.884;2023-10-19T05:15:55;6.90;99.90
16879;DHT22;8556;52.218;9.884;2023-10-19T05:18:24;7.00;99.90
16879;DHT22;8556;52.218;9.884;2023-10-19T05:20:52;7.00;99.90
16879;DHT22;8556;52.218;9.884;2023-10-19T05:23:22;7.00;99.90
16879;DHT22;8556;52.218;9.884;2023-10-19T05:25:50;7.00;99.90
16879;DHT22;8556;52.218;9.884;2023-10-19T05:28:19;6.90;99.90
16879;DHT22;8556;52.218;9.884;2023-10-19T05:30:47;7.00;99.90
16879;DHT22;8556;52.218;9.884;2023-10-19T05:33:17;6.90;99.90
16879;DHT22;8556;52.218;9.884;2023-10-19T05:35:47;7.00;99.90
16879;DHT22;8556;52.218;9.884;2023-10-19T05:38:13;7.00;99.90
16879;DHT22;8556;52.218;9.884;2023-10-19T05:40:41;7.00;99.90
16879;DHT22;8556;52.218;9.884;2023-10-19T05:43:08;7.00;99.90
16879;DHT22;8556;52.218;9.884;2023-10-19T05:45:35;7.10;99.90
16879;DHT22;8556;52.218;9.884;2023-10-19T05:48:03;7.00;99.90
16879;DHT22;8556;52.218;9.884;2023-10-19T05:50:33;7.00;99.90
16879;DHT22;8556;52.218;9.884;2023-10-19T05:53:00;7.00;99.90
16879;DHT22;8556;52.218;9.884;2023-10-19T05:55:28;7.00;99.90
16879;DHT22;8556;52.218;9.884;2023-10-19T05:57:55;7.10;99.90
16879;DHT22;8556;52.218;9.884;2023-10-19T06:00:22;7.00;99.90
16879;DHT22;8556;52.218;9.884;2023-10-19T06:02:51;7.00;99.90
16879;DHT22;8556;52.218;9.884;2023-10-19T06:05:19;7.00;99.90
16879;DHT22;8556;52.218;9.884;2023-10-19T06:07:48;7.00;99.90
16879;DHT22;8556;52.218;9.884;2023-10-19T06:10:17;7.10;99.90
16879;DHT22;8556;52.218;9.884;2023-10-19T06:12:46;7.00;99.90
16879;DHT22;8556;52.218;9.884;2023-10-19T06:15:15;7.00;99.90
16879;DHT22;8556;52.218;9.884;2023-10-19T06:17:42;7.00;99.90
16879;DHT22;8556;52.218;9.884;2023-10-19T06:20:12;7.10;99.90
16879;DHT22;8556;52.218;9.884;2023-10-19T06:22:51;7.00;99.90
16879;DHT22;8556;52.218;9.884;2023-10-19T06:25:18;7.10;99.90
16879;DHT22;8556;52.218;9.884;2023-10-19T06:27:47;7.00;99.90
16879;DHT22;8556;52.218;9.884;2023-10-19T06:30:14;7.00;99.90
16879;DHT22;8556;52.218;9.884;2023-10-19T06:32:47;7.00;99.90
16879;DHT22;8556;52.218;9.884;2023-10-19T06:35:16;7.00;99.90
16879;DHT22;8556;52.218;9.884;2023-10-19T06:37:43;7.00;99.90
16879;DHT22;8556;52.218;9.884;2023-10-19T06:40:12;7.00;99.90
16879;DHT22;8556;52.218;9.884;2023-10-19T06:42:40;7.00;99.90
16879;DHT22;8556;52.218;9.884;2023-10-19T06:45:08;7.00;99.90
16879;DHT22;8556;52.218;9.884;2023-10-19T06:47:39;7.00;99.90
16879;DHT22;8556;52.218;9.884;2023-10-19T06:50:07;7.00;99.90
16879;DHT22;8556;52.218;9.884;2023-10-19T06:52:36;7.00;99.90
16879;DHT22;8556;52.218;9.884;2023-10-19T06:55:04;7.00;99.90
16879;DHT22;8556;52.218;9.884;2023-10-19T06:57:34;7.00;99.90
16879;DHT22;8556;52.218;9.884;2023-10-19T07:00:01;7.10;99.90
16879;DHT22;8556;52.218;9.884;2023-10-19T07:02:39;7.10;99.90
16879;DHT22;8556;52.218;9.884;2023-10-19T07:05:07;7.10;99.90
16879;DHT22;8556;52.218;9.884;2023-10-19T07:07:38;7.10;99.90
16879;DHT22;8556;52.218;9.884;2023-10-19T07:10:06;7.10;99.90
16879;DHT22;8556;52.218;9.884;2023-10-19T07:12:36;7.10;99.90
16879;DHT22;8556;52.218;9.884;2023-10-19T07:15:04;7.00;99.90
16879;DHT22;8556;52.218;9.884;2023-10-19T07:17:36;7.10;99.90
16879;DHT22;8556;52.218;9.884;2023-10-19T07:20:04;7.10;99.90
16879;DHT22;8556;52.218;9.884;2023-10-19T07:22:34;7.10;99.90
16879;DHT22;8556;52.218;9.884;2023-10-19T07:25:04;7.20;99.90
16879;DHT22;8556;52.218;9.884;2023-10-19T07:27:31;7.20;99.90
16879;DHT22;8556;52.218;9.884;2023-10-19T07:30:00;7.20;99.90
16879;DHT22;8556;52.218;9.884;2023-10-19T07:32:30;7.20;99.90
16879;DHT22;8556;52.218;9.884;2023-10-19T07:34:58;7.20;99.90
16879;DHT22;8556;52.218;9.884;2023-10-19T07:37:25;7.20;99.90
16879;DHT22;8556;52.218;9.884;2023-10-19T07:39:53;7.20;99.90
16879;DHT22;8556;52.218;9.884;2023-10-19T07:42:23;7.20;99.90
16879;DHT22;8556;52.218;9.884;2023-10-19T07:44:50;7.20;99.90
16879;DHT22;8556;52.218;9.884;2023-10-19T07:47:18;7.30;99.90
16879;DHT22;8556;52.218;9.884;2023-10-19T07:49:45;7.30;99.90
16879;DHT22;8556;52.218;9.884;2023-10-19T07:52:13;7.40;99.90
16879;DHT22;8556;52.218;9.884;2023-10-19T07:54:40;7.50;99.90
16879;DHT22;8556;52.218;9.884;2023-10-19T07:57:07;7.30;99.90
16879;DHT22;8556;52.218;9.884;2023-10-19T07:59:34;7.30;99.90
16879;DHT22;8556;52.218;9.884;2023-10-19T08:02:01;7.30;99.90
16879;DHT22;8556;52.218;9.884;2023-10-19T08:04:30;7.40;99.90
16879;DHT22;8556;52.218;9.884;2023-10-19T08:06:57;7.40;99.90
16879;DHT22;8556;52.218;9.884;2023-10-19T08:09:25;7.40;99.90
16879;DHT22;8556;52.218;9.884;2023-10-19T08:11:57;7.40;99.90
16879;DHT22;8556;52.218;9.884;2023-10-19T08:14:24;7.40;99.90
16879;DHT22;8556;52.218;9.884;2023-10-19T08:16:51;7.50;99.90
16879;DHT22;8556;52.218;9.884;2023-10-19T08:19:19;7.50;99.90
16879;DHT22;8556;52.218;9.884;2023-10-19T08:21:48;7.50;99.90
16879;DHT22;8556;52.218;9.884;2023-10-19T08:24:15;7.50;99.90
16879;DHT22;8556;52.218;9.884;2023-10-19T08:26:43;7.50;99.90
16879;DHT22;8556;52.218;9.884;2023-10-19T08:29:11;7.70;99.90
16879;DHT22;8556;52.218;9.884;2023-10-19T08:31:39;7.60;99.90
16879;DHT22;8556;52.218;9.884;2023-10-19T08:34:06;7.60;99.90
16879;DHT22;8556;52.218;9.884;2023-10-19T08:36:35;7.60;99.90
16879;DHT22;8556;52.218;9.884;2023-10-19T08:39:04;7.60;99.90
16879;DHT22;8556;52.218;9.884;2023-10-19T08:41:31;7.60;99.90
16879;DHT22;8556;52.218;9.884;2023-10-19T08:44:00;7.70;99.90
16879;DHT22;8556;52.218;9.884;2023-10-19T08:46:27;7.60;99.90
16879;DHT22;8556;52.218;9.884;2023-10-19T08:48:55;7.60;99.90
16879;DHT22;8556;52.218;9.884;2023-10-19T08:51:24;7.70;99.90
16879;DHT22;8556;52.218;9.884;2023-10-19T08:53:53;7.70;99.90
16879;DHT22;8556;52.218;9.884;2023-10-19T08:56:21;7.70;99.90
16879;DHT22;8556;52.218;9.884;2023-10-19T08:58:50;7.80;99.90
16879;DHT22;8556;52.218;9.884;2023-10-19T09:01:18;7.70;99.90
16879;DHT22;8556;52.218;9.884;2023-10-19T09:03:50;7.80;99.90
16879;DHT22;8556;52.218;9.884;2023-10-19T09:06:17;7.80;99.90
16879;DHT22;8556;52.218;9.884;2023-10-19T09:08:47;7.80;99.90
16879;DHT22;8556;52.218;9.884;2023-10-19T09:11:14;7.80;99.90
16879;DHT22;8556;52.218;9.884;2023-10-19T09:13:47;7.80;99.90
16879;DHT22;8556;52.218;9.884;2023-10-19T09:16:15;7.80;99.90
16879;DHT22;8556;52.218;9.884;2023-10-19T09:18:42;7.90;99.90
16879;DHT22;8556;52.218;9.884;2023-10-19T09:21:15;7.90;99.90
16879;DHT22;8556;52.218;9.884;2023-10-19T09:23:50;7.90;99.90
16879;DHT22;8556;52.218;9.884;2023-10-19T09:26:17;8.00;99.90
16879;DHT22;8556;52.218;9.884;2023-10-19T09:28:48;8.10;99.90
16879;DHT22;8556;52.218;9.884;2023-10-19T09:31:18;8.00;99.90
16879;DHT22;8556;52.218;9.884;2023-10-19T09:33:54;8.10;99.90
16879;DHT22;8556;52.218;9.884;2023-10-19T09:36:24;8.20;99.90
16879;DHT22;8556;52.218;9.884;2023-10-19T09:38:55;8.20;99.90
16879;DHT22;8556;52.218;9.884;2023-10-19T09:41:24;8.20;99.90
16879;DHT22;8556;52.218;9.884;2023-10-19T09:44:02;8.20;99.90
16879;DHT22;8556;52.218;9.884;2023-10-19T09:46:41;8.30;99.90
16879;DHT22;8556;52.218;9.884;2023-10-19T09:49:09;8.40;99.90
16879;DHT22;8556;52.218;9.884;2023-10-19T09:51:42;8.30;99.90
16879;DHT22;8556;52.218;9.884;2023-10-19T09:54:22;8.40;99.90
16879;DHT22;8556;52.218;9.884;2023-10-19T09:57:01;8.40;99.90
16879;DHT22;8556;52.218;9.884;2023-10-19T09:59:36;8.50;99.90
16879;DHT22;8556;52.218;9.884;2023-10-19T10:02:06;8.50;99.90
16879;DHT22;8556;52.218;9.884;2023-10-19T10:04:35;8.40;99.90
16879;DHT22;8556;52.218;9.884;2023-10-19T10:07:04;8.50;99.90
16879;DHT22;8556;52.218;9.884;2023-10-19T10:09:35;8.50;99.90
16879;DHT22;8556;52.218;9.884;2023-10-19T10:12:19;8.60;99.90
16879;DHT22;8556;52.218;9.884;2023-10-19T10:14:58;8.70;99.90
16879;DHT22;8556;52.218;9.884;2023-10-19T10:17:27;8.60;99.90
16879;DHT22;8556;52.218;9.884;2023-10-19T10:19:55;8.60;99.90
16879;DHT22;8556;52.218;9.884;2023-10-19T10:22:25;8.60;99.90
16879;DHT22;8556;52.218;9.884;2023-10-19T10:24:56;8.50;99.90
16879;DHT22;8556;52.218;9.884;2023-10-19T10:27:22;8.60;99.90
16879;DHT22;8556;52.218;9.884;2023-10-19T10:29:58;8.70;99.90
16879;DHT22;8556;52.218;9.884;2023-10-19T10:32:43;8.70;99.90
16879;DHT22;8556;52.218;9.884;2023-10-19T10:35:11;8.60;99.90
16879;DHT22;8556;52.218;9.884;2023-10-19T10:37:59;8.60;99.90
16879;DHT22;8556;52.218;9.884;2023-10-19T10:40:26;8.70;99.90
16879;DHT22;8556;52.218;9.884;2023-10-19T10:43:05;8.70;99.90
16879;DHT22;8556;52.218;9.884;2023-10-19T10:45:33;8.70;99.90
16879;DHT22;8556;52.218;9.884;2023-10-19T10:48:00;8.70;99.90
16879;DHT22;8556;52.218;9.884;2023-10-19T10:50:27;8.80;99.90
16879;DHT22;8556;52.218;9.884;2023-10-19T10:52:54;8.90;99.90
16879;DHT22;8556;52.218;9.884;2023-10-19T10:55:23;8.90;99.90
16879;DHT22;8556;52.218;9.884;2023-10-19T10:57:51;8.90;99.90
16879;DHT22;8556;52.218;9.884;2023-10-19T11:00:18;8.90;99.90
16879;DHT22;8556;52.218;9.884;2023-10-19T11:02:47;9.00;99.90
16879;DHT22;8556;52.218;9.884;2023-10-19T11:05:25;8.90;99.90
16879;DHT22;8556;52.218;9.884;2023-10-19T11:08:07;8.90;99.90
16879;DHT22;8556;52.218;9.884;2023-10-19T11:10:35;9.00;99.90
16879;DHT22;8556;52.218;9.884;2023-10-19T11:13:03;9.00;99.90
16879;DHT22;8556;52.218;9.884;2023-10-19T11:15:31;9.00;99.90
16879;DHT22;8556;52.218;9.884;2023-10-19T11:18:00;9.10;99.90
16879;DHT22;8556;52.218;9.884;2023-10-19T11:20:28;9.20;99.90
16879;DHT22;8556;52.218;9.884;2023-10-19T11:22:56;9.20;99.90
16879;DHT22;8556;52.218;9.884;2023-10-19T11:25:27;9.20;99.90
16879;DHT22;8556;52.218;9.884;2023-10-19T11:27:55;9.20;99.90
16879;DHT22;8556;52.218;9.884;2023-10-19T11:30:26;9.20;99.90
16879;DHT22;8556;52.218;9.884;2023-10-19T11:32:53;9.30;99.90
16879;DHT22;8556;52.218;9.884;2023-10-19T11:35:24;9.20;99.90
16879;DHT22;8556;52.218;9.884;2023-10-19T11:37:52;9.30;99.90
16879;DHT22;8556;52.218;9.884;2023-10-19T11:40:20;9.40;99.90
16879;DHT22;8556;52.218;9.884;2023-10-19T11:42:47;9.30;99.90
16879;DHT22;8556;52.218;9.884;2023-10-19T11:45:14;9.30;99.90
16879;DHT22;8556;52.218;9.884;2023-10-19T11:47:42;9.30;99.90
16879;DHT22;8556;52.218;9.884;2023-10-19T11:50:09;9.30;99.90
16879;DHT22;8556;52.218;9.884;2023-10-19T11:52:39;9.40;99.90
16879;DHT22;8556;52.218;9.884;2023-10-19T11:55:06;9.40;99.90
16879;DHT22;8556;52.218;9.884;2023-10-19T11:57:35;9.40;99.90
16879;DHT22;8556;52.218;9.884;2023-10-19T12:00:02;9.40;99.90
16879;DHT22;8556;52.218;9.884;2023-10-19T12:02:35;9.40;99.90
16879;DHT22;8556;52.218;9.884;2023-10-19T12:05:03;9.40;99.90
16879;DHT22;8556;52.218;9.884;2023-10-19T12:07:34;9.40;99.90
16879;DHT22;8556;52.218;9.884;2023-10-19T12:10:04;9.50;99.90
16879;DHT22;8556;52.218;9.884;2023-10-19T12:12:31;9.50;99.90
16879;DHT22;8556;52.218;9.884;2023-10-19T12:14:58;9.50;99.90
16879;DHT22;8556;52.218;9.884;2023-10-19T12:17:25;9.60;99.90
16879;DHT22;8556;52.218;9.884;2023-10-19T12:19:53;9.60;99.90
16879;DHT22;8556;52.218;9.884;2023-10-19T12:22:20;9.70;99.90
16879;DHT22;8556;52.218;9.884;2023-10-19T12:24:47;9.70;99.90
16879;DHT22;8556;52.218;9.884;2023-10-19T12:27:19;9.70;99.90
16879;DHT22;8556;52.218;9.884;2023-10-19T12:29:46;9.70;99.90
16879;DHT22;8556;52.218;9.884;2023-10-19T12:32:13;9.70;99.90
16879;DHT22;8556;52.218;9.884;2023-10-19T12:34:40;9.70;99.90
16879;DHT22;8556;52.218;9.884;2023-10-19T12:37:07;9.80;99.90
16879;DHT22;8556;52.218;9.884;2023-10-19T12:39:36;9.80;99.90
16879;DHT22;8556;52.218;9.884;2023-10-19T12:42:08;9.80;99.90
16879;DHT22;8556;52.218;9.884;2023-10-19T12:44:36;9.80;99.90
16879;DHT22;8556;52.218;9.884;2023-10-19T12:47:07;9.80;99.90
16879;DHT22;8556;52.218;9.884;2023-10-19T12:49:36;9.80;99.90
16879;DHT22;8556;52.218;9.884;2023-10-19T12:52:03;9.80;99.90
16879;DHT22;8556;52.218;9.884;2023-10-19T12:54:32;9.90;99.90
16879;DHT22;8556;52.218;9.884;2023-10-19T12:57:00;9.80;99.90
16879;DHT22;8556;52.218;9.884;2023-10-19T12:59:29;9.80;99.90
16879;DHT22;8556;52.218;9.884;2023-10-19T13:01:57;9.80;99.90
16879;DHT22;8556;52.218;9.884;2023-10-19T13:04:24;9.80;99.90
16879;DHT22;8556;52.218;9.884;2023-10-19T13:06:51;9.80;99.90
16879;DHT22;8556;52.218;9.884;2023-10-19T13:09:23;9.80;99.90
16879;DHT22;8556;52.218;9.884;2023-10-19T13:11:57;9.80;99.90
16879;DHT22;8556;52.218;9.884;2023-10-19T13:14:24;9.80;99.90
16879;DHT22;8556;52.218;9.884;2023-10-19T13:16:51;9.80;99.90
16879;DHT22;8556;52.218;9.884;2023-10-19T13:19:19;9.90;99.90
16879;DHT22;8556;52.218;9.884;2023-10-19T13:21:49;10.00;99.90
16879;DHT22;8556;52.218;9.884;2023-10-19T13:24:17;9.80;99.90
16879;DHT22;8556;52.218;9.884;2023-10-19T13:26:46;9.80;99.90
16879;DHT22;8556;52.218;9.884;2023-10-19T13:29:13;9.80;99.90
16879;DHT22;8556;52.218;9.884;2023-10-19T13:31:40;9.80;99.90
16879;DHT22;8556;52.218;9.884;2023-10-19T13:34:10;9.90;99.90
16879;DHT22;8556;52.218;9.884;2023-10-19T13:36:40;9.80;99.90
16879;DHT22;8556;52.218;9.884;2023-10-19T13:39:07;9.90;99.90
16879;DHT22;8556;52.218;9.884;2023-10-19T13:41:38;9.70;99.90
16879;DHT22;8556;52.218;9.884;2023-10-19T13:44:05;9.70;99.90
16879;DHT22;8556;52.218;9.884;2023-10-19T13:46:32;9.60;99.90
16879;DHT22;8556;52.218;9.884;2023-10-19T13:48:59;9.60;99.90
16879;DHT22;8556;52.218;9.884;2023-10-19T13:51:29;9.60;99.90
16879;DHT22;8556;52.218;9.884;2023-10-19T13:53:58;9.60;99.90
16879;DHT22;8556;52.218;9.884;2023-10-19T13:56:25;9.60;99.90
16879;DHT22;8556;52.218;9.884;2023-10-19T13:58:52;9.50;99.90
16879;DHT22;8556;52.218;9.884;2023-10-19T14:01:20;9.60;99.90
16879;DHT22;8556;52.218;9.884;2023-10-19T14:03:51;9.50;99.90
16879;DHT22;8556;52.218;9.884;2023-10-19T14:06:20;9.60;99.90
16879;DHT22;8556;52.218;9.884;2023-10-19T14:08:47;9.50;99.90
16879;DHT22;8556;52.218;9.884;2023-10-19T14:11:15;9.60;99.90
16879;DHT22;8556;52.218;9.884;2023-10-19T14:13:42;9.50;99.90
16879;DHT22;8556;52.218;9.884;2023-10-19T14:16:10;9.50;99.90
16879;DHT22;8556;52.218;9.884;2023-10-19T14:18:37;9.60;99.90
16879;DHT22;8556;52.218;9.884;2023-10-19T14:21:11;9.50;99.90
16879;DHT22;8556;52.218;9.884;2023-10-19T14:23:39;9.60;99.90
16879;DHT22;8556;52.218;9.884;2023-10-19T14:26:06;9.60;99.90
16879;DHT22;8556;52.218;9.884;2023-10-19T14:28:35;9.70;99.90
16879;DHT22;8556;52.218;9.884;2023-10-19T14:31:03;9.60;99.90
16879;DHT22;8556;52.218;9.884;2023-10-19T14:33:33;9.60;99.90
16879;DHT22;8556;52.218;9.884;2023-10-19T14:36:01;9.60;99.90
16879;DHT22;8556;52.218;9.884;2023-10-19T14:38:28;9.60;99.90
16879;DHT22;8556;52.218;9.884;2023-10-19T14:40:55;9.60;99.90
16879;DHT22;8556;52.218;9.884;2023-10-19T14:43:23;9.70;99.90
16879;DHT22;8556;52.218;9.884;2023-10-19T14:45:52;9.70;99.90
16879;DHT22;8556;52.218;9.884;2023-10-19T14:48:19;9.70;99.90
16879;DHT22;8556;52.218;9.884;2023-10-19T14:50:46;9.60;99.90
16879;DHT22;8556;52.218;9.884;2023-10-19T14:53:15;9.70;99.90
16879;DHT22;8556;52.218;9.884;2023-10-19T14:55:43;9.60;99.90
16879;DHT22;8556;52.218;9.884;2023-10-19T14:58:11;9.60;99.90
16879;DHT22;8556;52.218;9.884;2023-10-19T15:00:38;9.60;99.90
16879;DHT22;8556;52.218;9.884;2023-10-19T15:03:10;9.50;99.90
16879;DHT22;8556;52.218;9.884;2023-10-19T15:05:39;9.70;99.90
16879;DHT22;8556;52.218;9.884;2023-10-19T15:08:07;9.50;99.90
16879;DHT22;8556;52.218;9.884;2023-10-19T15:10:41;9.60;99.90
16879;DHT22;8556;52.218;9.884;2023-10-19T15:13:07;9.50;99.90
16879;DHT22;8556;52.218;9.884;2023-10-19T15:15:34;9.50;99.90
16879;DHT22;8556;52.218;9.884;2023-10-19T15:18:02;9.50;99.90
16879;DHT22;8556;52.218;9.884;2023-10-19T15:20:31;9.50;99.90
16879;DHT22;8556;52.218;9.884;2023-10-19T15:22:58;9.50;99.90
16879;DHT22;8556;52.218;9.884;2023-10-19T15:25:25;9.60;99.90
16879;DHT22;8556;52.218;9.884;2023-10-19T15:27:53;9.50;99.90
16879;DHT22;8556;52.218;9.884;2023-10-19T15:30:20;9.50;99.90
16879;DHT22;8556;52.218;9.884;2023-10-19T15:32:48;9.60;99.90
16879;DHT22;8556;52.218;9.884;2023-10-19T15:35:17;9.50;99.90
16879;DHT22;8556;52.218;9.884;2023-10-19T15:37:48;9.40;99.90
16879;DHT22;8556;52.218;9.884;2023-10-19T15:40:15;9.40;99.90
16879;DHT22;8556;52.218;9.884;2023-10-19T15:42:43;9.40;99.90
16879;DHT22;8556;52.218;9.884;2023-10-19T15:45:11;9.40;99.90
16879;DHT22;8556;52.218;9.884;2023-10-19T15:47:38;9.40;99.90
16879;DHT22;8556;52.218;9.884;2023-10-19T15:50:06;9.50;99.90
16879;DHT22;8556;52.218;9.884;2023-10-19T15:52:35;9.40;99.90
16879;DHT22;8556;52.218;9.884;2023-10-19T15:55:08;9.50;99.90
16879;DHT22;8556;52.218;9.884;2023-10-19T15:57:35;9.40;99.90
16879;DHT22;8556;52.218;9.884;2023-10-19T16:00:02;9.40;99.90
16879;DHT22;8556;52.218;9.884;2023-10-19T16:02:29;9.30;99.90
16879;DHT22;8556;52.218;9.884;2023-10-19T16:04:56;9.30;99.90
16879;DHT22;8556;52.218;9.884;2023-10-19T16:07:23;9.20;99.90
16879;DHT22;8556;52.218;9.884;2023-10-19T16:09:50;9.20;99.90
16879;DHT22;8556;52.218;9.884;2023-10-19T16:12:18;9.20;99.90
16879;DHT22;8556;52.218;9.884;2023-10-19T16:14:45;9.20;99.90